createdAt,value
2023-04-25T00:02:04.864Z,12.86
2023-04-25T00:04:35.227Z,12.67
2023-04-25T00:07:04.876Z,12.40
2023-04-25T00:09:34.621Z,12.31
2023-04-25T00:12:03.796Z,12.33
2023-04-25T00:14:35.575Z,12.36
2023-04-25T00:17:06.057Z,12.38
2023-04-25T00:19:36.524Z,12.37
2023-04-25T00:22:07.275Z,12.29
2023-04-25T00:24:37.188Z,12.24
2023-04-25T00:27:06.569Z,12.20
2023-04-25T00:29:35.845Z,12.14
2023-04-25T00:32:04.556Z,12.06
2023-04-25T00:34:33.488Z,12.02
2023-04-25T00:37:05.486Z,12.03
2023-04-25T00:39:34.840Z,11.99
2023-04-25T00:42:04.845Z,11.97
2023-04-25T00:44:35.182Z,11.98
2023-04-25T00:47:04.949Z,12.08
2023-04-25T00:49:34.434Z,12.15
2023-04-25T00:52:03.739Z,12.11
2023-04-25T00:54:33.492Z,12.08
2023-04-25T00:57:03.371Z,12.01
2023-04-25T00:59:33.101Z,11.98
2023-04-25T01:02:02.389Z,11.87
2023-04-25T01:04:31.723Z,11.81
2023-04-25T01:07:01.562Z,11.81
2023-04-25T01:09:33.463Z,11.78
2023-04-25T01:12:02.681Z,11.78
2023-04-25T01:14:31.256Z,11.72
2023-04-25T01:17:00.421Z,11.67
2023-04-25T01:19:29.431Z,11.66
2023-04-25T01:21:59.038Z,11.67
2023-04-25T01:24:28.213Z,11.69
2023-04-25T01:26:58.217Z,11.61
2023-04-25T01:29:28.579Z,11.47
2023-04-25T01:32:00.066Z,11.37
2023-04-25T01:34:29.110Z,11.37
2023-04-25T01:37:00.872Z,11.45
2023-04-25T01:39:29.873Z,11.47
2023-04-25T01:42:00.467Z,11.48
2023-04-25T01:44:29.503Z,11.53
2023-04-25T01:46:58.612Z,11.65
2023-04-25T01:49:28.011Z,11.73
2023-04-25T01:51:57.053Z,11.81
2023-04-25T01:54:26.155Z,11.90
2023-04-25T01:56:55.089Z,12.01
2023-04-25T01:59:23.963Z,12.14
2023-04-25T02:01:53.083Z,12.22
2023-04-25T02:04:22.451Z,12.23
2023-04-25T02:06:51.680Z,12.19
2023-04-25T02:09:20.679Z,12.16
2023-04-25T02:11:49.822Z,12.16
2023-04-25T02:14:19.247Z,12.11
2023-04-25T02:16:48.844Z,12.09
2023-04-25T02:19:18.693Z,12.06
2023-04-25T02:21:48.881Z,12.06
2023-04-25T02:24:18.652Z,12.20
2023-04-25T02:26:48.361Z,12.22
2023-04-25T02:29:17.910Z,12.20
2023-04-25T02:31:46.818Z,12.18
2023-04-25T02:34:15.888Z,12.24
2023-04-25T02:36:44.993Z,12.36
2023-04-25T02:39:13.963Z,12.42
2023-04-25T02:41:42.925Z,12.47
2023-04-25T02:44:12.258Z,12.45
2023-04-25T02:46:41.382Z,12.46
2023-04-25T02:49:10.013Z,12.59
2023-04-25T02:51:38.942Z,12.73
2023-04-25T02:54:08.154Z,12.86
2023-04-25T02:56:37.227Z,13.01
2023-04-25T02:59:06.152Z,13.16
2023-04-25T03:01:35.107Z,13.23
2023-04-25T03:04:04.124Z,13.28
2023-04-25T03:06:32.989Z,13.33
2023-04-25T03:09:02.552Z,13.46
2023-04-25T03:11:31.816Z,13.51
2023-04-25T03:14:00.830Z,13.49
2023-04-25T03:16:30.286Z,13.40
2023-04-25T03:18:59.103Z,13.26
2023-04-25T03:21:28.372Z,13.18
2023-04-25T03:23:57.880Z,13.12
2023-04-25T03:26:27.190Z,12.97
2023-04-25T03:28:56.176Z,12.84
2023-04-25T03:31:25.047Z,12.69
2023-04-25T03:33:53.930Z,12.63
2023-04-25T03:36:23.113Z,12.65
2023-04-25T03:38:52.354Z,12.57
2023-04-25T03:41:22.243Z,12.44
2023-04-25T03:43:50.946Z,12.40
2023-04-25T03:46:20.136Z,12.43
2023-04-25T03:48:49.272Z,12.48
2023-04-25T03:51:18.320Z,12.43
2023-04-25T03:53:47.186Z,12.36
2023-04-25T03:56:16.903Z,12.30
2023-04-25T03:58:46.737Z,12.30
2023-04-25T04:01:15.593Z,12.35
2023-04-25T04:03:44.867Z,12.32
2023-04-25T04:06:14.451Z,12.28
2023-04-25T04:08:43.386Z,12.33
2023-04-25T04:11:12.607Z,12.39
2023-04-25T04:13:41.752Z,12.38
2023-04-25T04:16:10.720Z,12.35
2023-04-25T04:18:39.631Z,12.32
2023-04-25T04:21:08.652Z,12.28
2023-04-25T04:23:39.503Z,12.19
2023-04-25T04:26:10.183Z,12.06
2023-04-25T04:28:39.336Z,11.98
2023-04-25T04:31:09.182Z,12.01
2023-04-25T04:33:38.903Z,12.15
2023-04-25T04:36:09.313Z,12.31
2023-04-25T04:38:40.141Z,12.43
2023-04-25T04:41:11.216Z,12.55
2023-04-25T04:43:41.152Z,12.73
2023-04-25T04:46:11.687Z,12.85
2023-04-25T04:48:41.556Z,12.89
2023-04-25T04:51:11.048Z,12.99
2023-04-25T04:53:40.465Z,13.15
2023-04-25T04:56:09.435Z,13.30
2023-04-25T04:58:38.556Z,13.48
2023-04-25T05:01:08.058Z,13.57
2023-04-25T05:03:37.096Z,13.66
2023-04-25T05:06:06.784Z,13.76
2023-04-25T05:08:36.108Z,13.59
2023-04-25T05:11:05.417Z,13.59
2023-04-25T05:13:34.534Z,13.63
2023-04-25T05:16:05.612Z,13.74
2023-04-25T05:18:35.150Z,13.92
2023-04-25T05:21:04.412Z,14.08
2023-04-25T05:23:35.301Z,14.16
2023-04-25T05:26:04.582Z,14.28
2023-04-25T05:28:34.687Z,14.47
2023-04-25T05:31:03.789Z,14.63
2023-04-25T05:33:32.788Z,14.79
2023-04-25T05:36:02.026Z,14.93
2023-04-25T05:38:33.264Z,14.99
2023-04-25T05:41:03.846Z,15.08
2023-04-25T05:43:33.379Z,15.23
2023-04-25T05:46:02.228Z,15.48
2023-04-25T05:48:31.624Z,15.64
2023-04-25T05:51:00.587Z,15.71
2023-04-25T05:53:29.725Z,15.78
2023-04-25T05:55:58.776Z,15.93
2023-04-25T05:58:28.259Z,15.95
2023-04-25T06:00:57.220Z,15.95
2023-04-25T06:03:26.426Z,15.97
2023-04-25T06:05:55.501Z,15.99
2023-04-25T06:08:24.572Z,16.06
2023-04-25T06:10:53.632Z,16.07
2023-04-25T06:13:23.302Z,16.12
2023-04-25T06:15:52.410Z,16.19
2023-04-25T06:18:21.546Z,16.30
2023-04-25T06:20:50.466Z,16.45
2023-04-25T06:23:19.616Z,16.58
2023-04-25T06:25:48.679Z,16.63
2023-04-25T06:28:18.481Z,16.66
2023-04-25T06:30:47.614Z,16.81
2023-04-25T06:33:17.116Z,17.19
2023-04-25T06:35:47.192Z,17.78
2023-04-25T06:38:17.374Z,18.27
2023-04-25T06:40:46.562Z,18.39
2023-04-25T06:43:15.292Z,18.51
2023-04-25T06:45:47.009Z,19.09
2023-04-25T06:48:17.289Z,19.30
2023-04-25T06:50:46.550Z,19.53
2023-04-25T06:53:15.447Z,19.42
2023-04-25T06:55:44.571Z,19.41
2023-04-25T06:58:13.978Z,19.50
2023-04-25T07:00:43.459Z,19.49
2023-04-25T07:03:13.764Z,19.30
2023-04-25T07:05:43.084Z,19.25
2023-04-25T07:08:12.535Z,19.26
2023-04-25T07:10:43.526Z,19.55
2023-04-25T07:13:12.830Z,19.82
2023-04-25T07:15:43.531Z,19.99
2023-04-25T07:18:14.748Z,20.08
2023-04-25T07:20:46.832Z,19.98
2023-04-25T07:23:16.820Z,19.65
2023-04-25T07:25:46.490Z,19.38
2023-04-25T07:28:17.412Z,19.34
2023-04-25T07:30:48.413Z,19.43
2023-04-25T07:33:18.149Z,19.60
2023-04-25T07:35:47.719Z,19.66
2023-04-25T07:38:17.159Z,19.72
2023-04-25T07:40:47.619Z,19.64
2023-04-25T07:43:18.540Z,19.51
2023-04-25T07:45:48.926Z,19.48
2023-04-25T07:48:21.124Z,19.74
2023-04-25T07:50:52.334Z,20.08
2023-04-25T07:53:20.657Z,20.19
2023-04-25T07:55:51.370Z,20.31
2023-04-25T07:58:24.925Z,20.40
2023-04-25T08:00:56.568Z,20.51
2023-04-25T08:03:28.059Z,20.62
2023-04-25T08:05:58.961Z,20.94
2023-04-25T08:08:28.552Z,21.05
2023-04-25T08:10:57.851Z,21.30
2023-04-25T08:13:27.040Z,21.51
2023-04-25T08:15:57.202Z,21.71
2023-04-25T08:18:28.405Z,22.13
2023-04-25T08:21:00.009Z,22.45
2023-04-25T08:23:29.905Z,22.73
2023-04-25T08:26:00.249Z,22.88
2023-04-25T08:28:30.972Z,22.81
2023-04-25T08:31:00.310Z,22.98
2023-04-25T08:33:29.993Z,23.08
2023-04-25T08:35:59.511Z,22.87
2023-04-25T08:38:29.685Z,22.81
2023-04-25T08:41:03.117Z,22.77
2023-04-25T08:43:32.547Z,22.69
2023-04-25T08:46:02.855Z,22.62
2023-04-25T08:48:34.271Z,22.85
2023-04-25T08:51:05.309Z,22.72
2023-04-25T08:53:36.286Z,22.60
2023-04-25T08:56:11.215Z,22.53
2023-04-25T08:58:43.308Z,22.14
2023-04-25T09:01:14.534Z,21.78
2023-04-25T09:03:46.175Z,21.56
2023-04-25T09:06:19.265Z,21.26
2023-04-25T09:08:52.061Z,20.96
2023-04-25T09:11:24.183Z,20.71
2023-04-25T09:14:14.117Z,20.40
2023-04-25T09:17:02.792Z,20.12
2023-04-25T09:19:40.909Z,20.01
2023-04-25T09:22:11.316Z,19.87
2023-04-25T09:24:43.125Z,19.76
2023-04-25T09:27:19.958Z,19.60
2023-04-25T09:29:48.944Z,19.50
2023-04-25T09:32:24.116Z,19.62
2023-04-25T09:34:56.189Z,19.81
2023-04-25T09:37:30.497Z,19.92
2023-04-25T09:40:04.514Z,19.94
2023-04-25T09:42:36.375Z,19.80
2023-04-25T09:45:05.940Z,19.65
2023-04-25T09:47:40.563Z,19.58
2023-04-25T09:50:21.074Z,19.59
2023-04-25T09:53:07.021Z,19.58
2023-04-25T09:55:38.135Z,19.57
2023-04-25T09:58:10.447Z,19.56
2023-04-25T10:00:41.581Z,19.42
2023-04-25T10:03:12.821Z,19.33
2023-04-25T10:05:45.149Z,19.37
2023-04-25T10:08:15.875Z,19.61
2023-04-25T10:10:46.229Z,19.66
2023-04-25T10:13:16.949Z,19.65
2023-04-25T10:15:48.059Z,19.60
2023-04-25T10:18:19.795Z,19.59
2023-04-25T10:20:49.594Z,19.54
2023-04-25T10:23:19.282Z,19.43
2023-04-25T10:25:51.002Z,19.48
2023-04-25T10:28:21.442Z,19.54
2023-04-25T10:31:05.683Z,19.60
2023-04-25T10:33:43.808Z,19.62
2023-04-25T10:36:16.562Z,19.69
2023-04-25T10:38:48.428Z,19.77
2023-04-25T10:41:21.523Z,19.69
2023-04-25T10:44:00.830Z,19.72
2023-04-25T10:46:35.435Z,20.10
2023-04-25T10:49:05.053Z,20.30
2023-04-25T10:51:53.988Z,20.37
2023-04-25T10:54:28.119Z,20.22
2023-04-25T10:57:01.187Z,20.14
2023-04-25T10:59:33.256Z,20.09
2023-04-25T11:02:15.583Z,20.12
2023-04-25T11:04:47.165Z,20.20
2023-04-25T11:07:31.635Z,20.34
2023-04-25T11:10:05.544Z,20.63
2023-04-25T11:12:35.422Z,21.73
2023-04-25T11:15:05.346Z,22.08
2023-04-25T11:17:36.066Z,22.19
2023-04-25T11:20:09.876Z,22.78
2023-04-25T11:22:43.211Z,24.28
2023-04-25T11:25:14.432Z,24.35
2023-04-25T11:27:54.166Z,24.01
2023-04-25T11:30:25.453Z,23.80
2023-04-25T11:32:55.864Z,23.74
2023-04-25T11:35:27.170Z,24.01
2023-04-25T11:37:57.412Z,23.99
2023-04-25T11:40:26.955Z,23.73
2023-04-25T11:42:56.208Z,23.68
2023-04-25T11:45:25.454Z,23.26
2023-04-25T11:47:54.896Z,23.07
2023-04-25T11:50:24.092Z,22.70
2023-04-25T11:52:58.372Z,22.78
2023-04-25T11:55:28.240Z,22.99
2023-04-25T11:58:01.961Z,24.00
2023-04-25T12:00:32.007Z,24.17
2023-04-25T12:03:02.007Z,24.16
2023-04-25T12:05:36.845Z,24.08
2023-04-25T12:08:17.701Z,23.98
2023-04-25T12:10:48.535Z,23.94
2023-04-25T12:13:26.402Z,24.02
2023-04-25T12:15:58.919Z,24.20
2023-04-25T12:18:32.005Z,24.32
2023-04-25T12:21:01.702Z,24.33
2023-04-25T12:23:32.190Z,24.60
2023-04-25T12:26:04.290Z,24.49
2023-04-25T12:28:34.628Z,24.28
2023-04-25T12:31:06.803Z,24.51
2023-04-25T12:33:38.056Z,25.04
2023-04-25T12:36:12.785Z,24.77
2023-04-25T12:38:43.957Z,24.45
2023-04-25T12:41:13.408Z,24.57
2023-04-25T12:43:42.424Z,24.58
2023-04-25T12:46:12.324Z,24.55
2023-04-25T12:48:41.943Z,24.15
2023-04-25T12:51:11.466Z,23.76
2023-04-25T12:53:42.403Z,23.45
2023-04-25T12:56:12.303Z,23.50
2023-04-25T12:58:41.951Z,24.30
2023-04-25T13:01:10.910Z,24.74
2023-04-25T13:03:41.096Z,24.54
2023-04-25T13:06:10.375Z,24.07
2023-04-25T13:08:40.178Z,24.05
2023-04-25T13:11:10.052Z,24.03
2023-04-25T13:13:39.198Z,24.14
2023-04-25T13:16:09.111Z,24.83
2023-04-25T13:18:38.836Z,25.07
2023-04-25T13:21:08.374Z,25.35
2023-04-25T13:23:37.598Z,25.30
2023-04-25T13:26:07.692Z,25.03
2023-04-25T13:28:37.132Z,24.90
2023-04-25T13:31:07.895Z,24.46
2023-04-25T13:33:37.975Z,24.44
2023-04-25T13:36:07.801Z,24.66
2023-04-25T13:38:37.523Z,24.76
2023-04-25T13:41:08.341Z,24.74
2023-04-25T13:43:37.711Z,24.77
2023-04-25T13:46:08.296Z,24.48
2023-04-25T13:48:38.731Z,24.33
2023-04-25T13:51:08.795Z,24.39
2023-04-25T13:53:37.851Z,24.29
2023-04-25T13:56:07.556Z,24.02
2023-04-25T13:58:37.433Z,23.61
2023-04-25T14:01:07.392Z,23.36
2023-04-25T14:03:36.763Z,23.16
2023-04-25T14:06:06.287Z,23.03
2023-04-25T14:08:34.849Z,22.81
2023-04-25T14:11:04.534Z,22.57
2023-04-25T14:13:33.523Z,22.81
2023-04-25T14:16:02.582Z,23.15
2023-04-25T14:18:31.684Z,23.15
2023-04-25T14:21:01.438Z,23.00
2023-04-25T14:23:30.879Z,23.38
2023-04-25T14:25:59.907Z,23.89
2023-04-25T14:28:28.609Z,23.61
2023-04-25T14:30:57.506Z,23.44
2023-04-25T14:33:26.298Z,23.16
2023-04-25T14:35:55.882Z,23.44
2023-04-25T14:38:26.814Z,23.74
2023-04-25T14:40:55.854Z,24.46
2023-04-25T14:43:24.671Z,25.24
2023-04-25T14:45:54.427Z,25.30
2023-04-25T14:48:24.698Z,25.63
2023-04-25T14:50:53.885Z,25.95
2023-04-25T14:53:22.363Z,26.07
2023-04-25T14:55:51.255Z,26.44
2023-04-25T14:58:20.004Z,26.48
2023-04-25T15:00:49.052Z,26.29
2023-04-25T15:03:19.697Z,26.55
2023-04-25T15:05:48.734Z,26.33
2023-04-25T15:08:17.537Z,26.64
2023-04-25T15:10:47.648Z,26.33
2023-04-25T15:13:17.064Z,26.36
2023-04-25T15:15:46.238Z,26.34
2023-04-25T15:18:15.696Z,26.21
2023-04-25T15:20:45.001Z,25.91
2023-04-25T15:23:13.978Z,25.78
2023-04-25T15:25:43.499Z,25.47
2023-04-25T15:28:16.236Z,25.40
2023-04-25T15:30:46.868Z,25.22
2023-04-25T15:33:17.159Z,25.10
2023-04-25T15:35:48.386Z,24.74
2023-04-25T15:38:18.705Z,24.20
2023-04-25T15:40:48.198Z,23.49
2023-04-25T15:43:18.589Z,23.05
2023-04-25T15:45:49.324Z,22.59
2023-04-25T15:48:21.415Z,22.24
2023-04-25T15:50:51.813Z,21.73
2023-04-25T15:53:23.764Z,21.53
2023-04-25T15:55:53.277Z,20.88
2023-04-25T15:58:22.683Z,20.72
2023-04-25T16:00:53.025Z,20.42
2023-04-25T16:03:22.721Z,20.21
2023-04-25T16:05:51.878Z,20.06
2023-04-25T16:08:20.584Z,19.98
2023-04-25T16:10:50.137Z,19.88
2023-04-25T16:13:19.108Z,19.96
2023-04-25T16:15:48.399Z,20.01
2023-04-25T16:18:18.714Z,19.93
2023-04-25T16:20:48.369Z,19.74
2023-04-25T16:23:17.473Z,19.61
2023-04-25T16:25:47.043Z,19.43
2023-04-25T16:28:16.692Z,19.26
2023-04-25T16:30:46.735Z,19.20
2023-04-25T16:33:17.015Z,19.32
2023-04-25T16:35:47.125Z,19.45
2023-04-25T16:38:17.376Z,19.35
2023-04-25T16:40:47.876Z,19.26
2023-04-25T16:43:20.642Z,19.23
2023-04-25T16:45:50.624Z,19.20
2023-04-25T16:48:21.620Z,19.13
2023-04-25T16:50:53.322Z,19.05
2023-04-25T16:53:22.993Z,18.94
2023-04-25T16:55:52.609Z,18.81
2023-04-25T16:58:22.420Z,18.73
2023-04-25T17:00:53.370Z,18.63
2023-04-25T17:03:24.029Z,18.65
2023-04-25T17:06:01.840Z,18.65
2023-04-25T17:08:31.918Z,18.63
2023-04-25T17:11:05.758Z,18.66
2023-04-25T17:13:36.519Z,18.65
2023-04-25T17:16:07.228Z,18.57
2023-04-25T17:18:37.643Z,18.53
2023-04-25T17:21:08.564Z,18.49
2023-04-25T17:23:45.513Z,18.43
2023-04-25T17:26:18.029Z,18.38
2023-04-25T17:28:51.072Z,18.34
2023-04-25T17:31:25.262Z,18.27
2023-04-25T17:33:55.724Z,18.19
2023-04-25T17:36:28.014Z,18.11
2023-04-25T17:38:59.324Z,18.02
2023-04-25T17:41:30.077Z,17.93
2023-04-25T17:44:00.727Z,17.84
2023-04-25T17:46:31.173Z,17.71
2023-04-25T17:49:01.805Z,17.62
2023-04-25T17:51:32.083Z,17.55
2023-04-25T17:54:01.723Z,17.47
2023-04-25T17:56:31.815Z,17.39
2023-04-25T17:59:01.757Z,17.30
2023-04-25T18:01:31.520Z,17.22
2023-04-25T18:04:02.144Z,17.14
2023-04-25T18:06:33.721Z,17.08
2023-04-25T18:09:03.925Z,17.00
2023-04-25T18:11:33.838Z,16.91
2023-04-25T18:14:04.126Z,16.83
2023-04-25T18:16:34.553Z,16.73
2023-04-25T18:19:06.388Z,16.65
2023-04-25T18:21:36.234Z,16.59
2023-04-25T18:24:07.244Z,16.55
2023-04-25T18:26:36.603Z,16.50
2023-04-25T18:29:07.747Z,16.44
2023-04-25T18:31:37.797Z,16.37
2023-04-25T18:34:08.712Z,16.30
2023-04-25T18:36:38.643Z,16.23
2023-04-25T18:41:55.142Z,16.04
2023-04-25T18:44:28.874Z,15.86
2023-04-25T18:46:58.008Z,15.77
2023-04-25T18:49:27.537Z,15.68
2023-04-25T18:51:57.785Z,15.56
2023-04-25T18:54:27.244Z,15.44
2023-04-25T18:56:57.989Z,15.31
2023-04-25T18:59:27.780Z,15.20
2023-04-25T19:01:57.252Z,15.09
2023-04-25T19:04:27.090Z,14.97
2023-04-25T19:06:57.633Z,14.86
2023-04-25T19:09:27.237Z,14.82
2023-04-25T19:11:56.681Z,14.86
2023-04-25T19:14:26.911Z,14.86
2023-04-25T19:16:59.592Z,14.85
2023-04-25T19:19:29.342Z,14.86
2023-04-25T19:21:59.512Z,14.86
2023-04-25T19:24:29.109Z,14.80
2023-04-25T19:26:57.912Z,14.74
2023-04-25T19:29:28.317Z,14.64
2023-04-25T19:31:59.455Z,14.56
2023-04-25T19:34:28.896Z,14.45
2023-04-25T19:36:58.165Z,14.34
2023-04-25T19:39:27.401Z,14.31
2023-04-25T19:41:56.989Z,14.35
2023-04-25T19:44:26.548Z,14.32
2023-04-25T19:46:55.604Z,14.30
2023-04-25T19:49:25.269Z,14.23
2023-04-25T19:51:54.647Z,14.16
2023-04-25T19:54:23.526Z,14.17
2023-04-25T19:56:53.186Z,14.17
2023-04-25T19:59:22.651Z,14.14
2023-04-25T20:01:52.567Z,14.14
2023-04-25T20:04:21.825Z,14.12
2023-04-25T20:06:52.226Z,14.04
2023-04-25T20:09:22.475Z,14.01
2023-04-25T20:11:51.812Z,14.04
2023-04-25T20:14:20.959Z,14.01
2023-04-25T20:16:50.314Z,13.91
2023-04-25T20:19:19.701Z,13.86
2023-04-25T20:21:48.828Z,13.80
2023-04-25T20:24:17.656Z,13.72
2023-04-25T20:26:46.476Z,13.64
2023-04-25T20:29:15.592Z,13.56
2023-04-25T20:31:44.724Z,13.54
2023-04-25T20:34:14.126Z,13.54
2023-04-25T20:36:42.976Z,13.56
2023-04-25T20:39:14.528Z,13.56
2023-04-25T20:41:47.875Z,13.54
2023-04-25T20:44:20.511Z,13.48
2023-04-25T20:46:52.130Z,13.42
2023-04-25T20:49:23.526Z,13.46
2023-04-25T20:51:55.016Z,13.48
2023-04-25T20:54:27.756Z,13.45
2023-04-25T20:56:58.452Z,13.40
2023-04-25T20:59:29.988Z,13.36
2023-04-25T21:02:00.800Z,13.30
2023-04-25T21:04:32.460Z,13.24
2023-04-25T21:07:02.114Z,13.20
2023-04-25T21:09:31.845Z,13.17
2023-04-25T21:12:03.678Z,13.14
2023-04-25T21:14:32.928Z,13.20
2023-04-25T21:17:05.552Z,13.28
2023-04-25T21:19:36.781Z,13.32
2023-04-25T21:22:07.356Z,13.26
2023-04-25T21:24:40.249Z,13.16
2023-04-25T21:27:11.491Z,13.07
2023-04-25T21:29:43.172Z,13.03
2023-04-25T21:32:17.966Z,13.10
2023-04-25T21:34:49.233Z,13.18
2023-04-25T21:37:19.597Z,13.21
2023-04-25T21:39:50.065Z,13.22
2023-04-25T21:42:20.135Z,13.23
2023-04-25T21:44:52.732Z,13.31
2023-04-25T21:47:23.169Z,13.37
2023-04-25T21:49:53.966Z,13.35
2023-04-25T21:52:23.952Z,13.33
2023-04-25T21:54:53.362Z,13.32
2023-04-25T21:57:24.942Z,13.38
2023-04-25T21:59:54.339Z,13.36
2023-04-25T22:02:23.841Z,13.21
2023-04-25T22:04:52.967Z,13.08
2023-04-25T22:07:21.990Z,12.95
2023-04-25T22:09:55.146Z,12.85
2023-04-25T22:12:25.084Z,12.77
2023-04-25T22:14:54.548Z,12.68
2023-04-25T22:17:26.342Z,12.61
2023-04-25T22:19:55.329Z,12.57
2023-04-25T22:22:24.496Z,12.60
2023-04-25T22:24:53.229Z,12.64
2023-04-25T22:27:23.936Z,12.63
2023-04-25T22:29:53.487Z,12.59
2023-04-25T22:32:23.156Z,12.58
2023-04-25T22:34:53.499Z,12.54
2023-04-25T22:37:22.413Z,12.51
2023-04-25T22:39:51.791Z,12.48
2023-04-25T22:42:21.022Z,12.44
2023-04-25T22:44:50.305Z,12.40
2023-04-25T22:47:19.225Z,12.35
2023-04-25T22:49:48.062Z,12.26
2023-04-25T22:52:17.608Z,12.15
2023-04-25T22:54:46.812Z,12.03
2023-04-25T22:57:17.077Z,11.96
2023-04-25T22:59:46.109Z,11.96
2023-04-25T23:02:15.450Z,11.96
2023-04-25T23:04:45.054Z,11.91
2023-04-25T23:07:14.017Z,11.90
2023-04-25T23:09:43.223Z,11.87
2023-04-25T23:12:12.097Z,11.87
2023-04-25T23:14:41.178Z,11.87
2023-04-25T23:17:10.143Z,11.84
2023-04-25T23:19:39.089Z,11.75
2023-04-25T23:22:07.949Z,11.74
2023-04-25T23:24:41.420Z,11.80
2023-04-25T23:27:10.519Z,11.69
2023-04-25T23:29:40.819Z,11.63
2023-04-25T23:32:10.135Z,11.59
2023-04-25T23:34:38.894Z,11.49
2023-04-25T23:37:08.952Z,11.45
2023-04-25T23:39:38.055Z,11.46
2023-04-25T23:42:07.226Z,11.48
2023-04-25T23:44:37.915Z,11.45
2023-04-25T23:47:07.852Z,11.39
2023-04-25T23:49:37.792Z,11.29
2023-04-25T23:52:07.468Z,11.18
2023-04-25T23:54:37.008Z,11.06
2023-04-25T23:57:07.002Z,10.96
2023-04-25T23:59:37.182Z,10.87
